Time;durP1;ratioP1;P1;durP2;ratioP2;P2;SDS_P1;SDS_P2;PMS_P1;PMS_P2;Temp;Humidity;BMP_temperature;BMP_pressure;BME280_temperature;BME280_humidity;BME280_pressure;Samples;Min_cycle;Max_cycle;Signal;HPM_P1;HPM_P2
2023/07/03 00:00:44;;;;;;;8.40;6.60;;;;;;;;;;5055768;28;20067;-69
2023/07/03 00:03:13;;;;;;;7.03;6.32;;;;;;;;;;5052721;28;20028;-70
2023/07/03 00:05:46;;;;;;;8.35;6.05;;;;;;;;;;5053852;28;20634;-70
2023/07/03 00:08:12;;;;;;;7.28;6.07;;;;;;;;;;5050104;28;20033;-70
2023/07/03 00:10:38;;;;;;;7.50;6.22;;;;;;;;;;5045335;28;20044;-70
2023/07/03 00:13:04;;;;;;;7.05;6.35;;;;;;;;;;5041621;28;20391;-69
2023/07/03 00:15:30;;;;;;;7.90;6.35;;;;;;;;;;5057803;28;20179;-70
2023/07/03 00:17:55;;;;;;;8.48;7.03;;;;;;;;;;5010369;28;20087;-69
2023/07/03 00:20:21;;;;;;;7.38;6.30;;;;;;;;;;5032218;28;20487;-70
2023/07/03 00:22:48;;;;;;;10.20;6.80;;;;;;;;;;5058865;28;20060;-70
2023/07/03 00:25:16;;;;;;;9.82;7.13;;;;;;;;;;5048063;28;20037;-70
2023/07/03 00:27:41;;;;;;;9.30;6.72;;;;;;;;;;5036767;28;20386;-70
2023/07/03 00:30:07;;;;;;;10.30;6.88;;;;;;;;;;5037571;28;20108;-70
2023/07/03 00:32:33;;;;;;;8.13;7.10;;;;;;;;;;5038675;28;20021;-69
2023/07/03 00:34:58;;;;;;;8.02;6.93;;;;;;;;;;5049248;28;20767;-70
2023/07/03 00:37:24;;;;;;;8.23;6.25;;;;;;;;;;5002203;28;20108;-70
2023/07/03 00:39:50;;;;;;;9.07;7.22;;;;;;;;;;5032942;28;20024;-68
2023/07/03 00:42:15;;;;;;;9.93;7.30;;;;;;;;;;5045110;28;20029;-70
2023/07/03 00:44:41;;;;;;;8.20;6.35;;;;;;;;;;5021199;28;20024;-70
2023/07/03 00:47:10;;;;;;;10.88;7.78;;;;;;;;;;5034521;28;20056;-69
2023/07/03 00:49:36;;;;;;;8.85;7.35;;;;;;;;;;5036599;28;20506;-69
2023/07/03 00:52:02;;;;;;;10.10;7.10;;;;;;;;;;5054057;28;20095;-69
2023/07/03 00:54:29;;;;;;;7.78;6.97;;;;;;;;;;5048619;28;20028;-70
2023/07/03 00:56:55;;;;;;;8.35;6.93;;;;;;;;;;5051737;28;20547;-69
2023/07/03 00:59:20;;;;;;;14.70;7.85;;;;;;;;;;5053066;28;20053;-70
2023/07/03 01:02:14;;;;;;;14.48;7.22;;;;;;;;;;5047180;28;20041;-69
2023/07/03 01:04:45;;;;;;;9.77;8.07;;;;;;;;;;5045870;28;20033;-69
2023/07/03 01:07:16;;;;;;;10.98;8.15;;;;;;;;;;5046345;28;20102;-70
2023/07/03 01:10:12;;;;;;;11.77;7.70;;;;;;;;;;5055187;28;20548;-69
2023/07/03 01:12:42;;;;;;;12.82;7.03;;;;;;;;;;5042438;28;20091;-69
2023/07/03 01:15:12;;;;;;;16.77;8.80;;;;;;;;;;5050762;28;20112;-68
2023/07/03 01:17:40;;;;;;;12.10;7.90;;;;;;;;;;5054932;28;20032;-70
2023/07/03 01:20:09;;;;;;;8.23;7.30;;;;;;;;;;5055298;28;20060;-69
2023/07/03 01:22:53;;;;;;;10.43;7.40;;;;;;;;;;5039326;28;20025;-69
2023/07/03 01:25:20;;;;;;;12.63;7.88;;;;;;;;;;5047873;28;20075;-69
2023/07/03 01:27:50;;;;;;;10.02;7.75;;;;;;;;;;5054997;28;20021;-69
2023/07/03 01:30:18;;;;;;;13.20;8.48;;;;;;;;;;5041107;28;20045;-70
2023/07/03 01:32:47;;;;;;;14.05;8.20;;;;;;;;;;5055826;28;20028;-70
2023/07/03 01:35:15;;;;;;;10.73;7.78;;;;;;;;;;5060760;28;20551;-69
2023/07/03 01:37:46;;;;;;;11.82;8.00;;;;;;;;;;5028395;28;20032;-69
2023/07/03 01:40:15;;;;;;;9.57;7.97;;;;;;;;;;5050325;28;20056;-69
2023/07/03 01:42:42;;;;;;;12.40;8.18;;;;;;;;;;5031501;28;20025;-70
2023/07/03 01:45:09;;;;;;;11.15;7.57;;;;;;;;;;5053997;28;20085;-69
2023/07/03 01:47:36;;;;;;;10.82;7.60;;;;;;;;;;5042497;28;20033;-69
2023/07/03 01:50:02;;;;;;;10.73;7.82;;;;;;;;;;5053043;28;20021;-69
2023/07/03 01:52:38;;;;;;;11.90;8.00;;;;;;;;;;5063496;28;20073;-69
2023/07/03 01:55:05;;;;;;;10.50;8.00;;;;;;;;;;5016752;28;20049;-69
2023/07/03 01:57:48;;;;;;;12.02;7.15;;;;;;;;;;5047973;28;20033;-70
2023/07/03 02:00:19;;;;;;;10.23;7.75;;;;;;;;;;5053222;28;20036;-69
2023/07/03 02:02:48;;;;;;;11.13;8.23;;;;;;;;;;5057062;28;20039;-69
2023/07/03 02:05:26;;;;;;;10.80;7.57;;;;;;;;;;5042257;28;20025;-69
2023/07/03 02:07:56;;;;;;;11.88;7.18;;;;;;;;;;5036222;28;20025;-68
2023/07/03 02:10:21;;;;;;;10.27;7.68;;;;;;;;;;5055020;28;20074;-69
2023/07/03 02:12:47;;;;;;;14.30;8.00;;;;;;;;;;5067328;28;20440;-69
2023/07/03 02:15:14;;;;;;;8.90;7.70;;;;;;;;;;5056617;28;20032;-67
2023/07/03 02:17:40;;;;;;;12.27;7.32;;;;;;;;;;5056908;28;20104;-68
2023/07/03 02:20:07;;;;;;;11.45;7.43;;;;;;;;;;5042237;28;20071;-69
2023/07/03 02:22:33;;;;;;;11.98;7.60;;;;;;;;;;5047054;28;20064;-69
2023/07/03 02:24:58;;;;;;;10.32;7.38;;;;;;;;;;5051555;28;20071;-68
2023/07/03 02:27:24;;;;;;;10.52;7.72;;;;;;;;;;5056150;28;20028;-68
2023/07/03 02:29:49;;;;;;;10.07;7.55;;;;;;;;;;5032996;28;20100;-69
2023/07/03 02:32:15;;;;;;;10.48;7.18;;;;;;;;;;5058321;28;20044;-69
2023/07/03 02:34:40;;;;;;;10.93;7.57;;;;;;;;;;5061858;28;20043;-70
2023/07/03 02:37:09;;;;;;;11.40;8.35;;;;;;;;;;5043610;28;20067;-68
2023/07/03 02:39:35;;;;;;;13.02;8.20;;;;;;;;;;5041556;28;20024;-68
2023/07/03 02:42:00;;;;;;;10.52;7.72;;;;;;;;;;5026588;28;20040;-68
2023/07/03 02:44:26;;;;;;;12.27;8.70;;;;;;;;;;5036099;28;20506;-69
2023/07/03 02:46:51;;;;;;;13.55;8.07;;;;;;;;;;5024425;28;20033;-69
2023/07/03 02:49:16;;;;;;;10.65;7.78;;;;;;;;;;5055993;28;20033;-69
2023/07/03 02:51:42;;;;;;;11.80;7.88;;;;;;;;;;5019004;28;20041;-68
2023/07/03 02:54:09;;;;;;;10.98;7.93;;;;;;;;;;5037795;28;20116;-68
2023/07/03 02:56:35;;;;;;;8.75;7.72;;;;;;;;;;5053554;28;20040;-70
2023/07/03 02:59:01;;;;;;;11.30;8.13;;;;;;;;;;5041086;28;20041;-69
2023/07/03 03:01:26;;;;;;;12.73;7.78;;;;;;;;;;5040093;28;20674;-69
2023/07/03 03:03:51;;;;;;;11.82;7.82;;;;;;;;;;5038598;28;20104;-69
2023/07/03 03:06:17;;;;;;;11.20;8.32;;;;;;;;;;5033879;28;20036;-69
2023/07/03 03:08:42;;;;;;;11.30;7.95;;;;;;;;;;5030259;28;20059;-69
2023/07/03 03:11:08;;;;;;;12.00;8.18;;;;;;;;;;5026314;28;20041;-69
2023/07/03 03:13:33;;;;;;;11.55;8.68;;;;;;;;;;5038465;28;20029;-69
2023/07/03 03:15:58;;;;;;;9.40;7.60;;;;;;;;;;5018536;28;20045;-69
2023/07/03 03:18:24;;;;;;;12.07;8.13;;;;;;;;;;5020101;28;20061;-69
2023/07/03 03:20:49;;;;;;;10.52;7.97;;;;;;;;;;5041631;28;20106;-69
2023/07/03 03:23:15;;;;;;;8.77;7.50;;;;;;;;;;5038604;28;20043;-69
2023/07/03 03:25:42;;;;;;;15.65;8.13;;;;;;;;;;5037957;28;20100;-69
2023/07/03 03:28:08;;;;;;;11.48;8.38;;;;;;;;;;5044362;28;20091;-69
2023/07/03 03:30:33;;;;;;;11.80;8.38;;;;;;;;;;5038672;28;20061;-68
2023/07/03 03:32:59;;;;;;;10.80;7.90;;;;;;;;;;5045935;28;20036;-69
2023/07/03 03:35:24;;;;;;;11.98;8.05;;;;;;;;;;5038204;28;20033;-69
2023/07/03 03:37:50;;;;;;;12.63;8.60;;;;;;;;;;5017102;28;20040;-69
2023/07/03 03:40:15;;;;;;;10.23;7.90;;;;;;;;;;5042269;28;20044;-69
2023/07/03 03:42:41;;;;;;;12.98;7.97;;;;;;;;;;5039894;28;20031;-68
2023/07/03 03:45:06;;;;;;;10.82;8.30;;;;;;;;;;5039644;28;20055;-68
2023/07/03 03:47:32;;;;;;;12.93;8.32;;;;;;;;;;5063339;28;20025;-68
2023/07/03 03:49:58;;;;;;;13.57;8.45;;;;;;;;;;5062194;28;20136;-68
2023/07/03 03:52:24;;;;;;;14.82;7.97;;;;;;;;;;5033767;28;20033;-68
2023/07/03 03:54:49;;;;;;;11.95;8.23;;;;;;;;;;5057556;28;20542;-69
2023/07/03 03:57:15;;;;;;;12.15;8.07;;;;;;;;;;5058252;28;20045;-68
2023/07/03 03:59:41;;;;;;;10.90;7.72;;;;;;;;;;5034337;28;20028;-68
2023/07/03 04:02:06;;;;;;;10.18;8.00;;;;;;;;;;5057623;28;20063;-68
2023/07/03 04:04:32;;;;;;;11.93;8.48;;;;;;;;;;5056031;28;20112;-68
2023/07/03 04:06:58;;;;;;;10.25;7.55;;;;;;;;;;5055733;28;20044;-68
2023/07/03 04:09:23;;;;;;;15.88;7.85;;;;;;;;;;5044197;28;20040;-68
2023/07/03 04:11:49;;;;;;;13.13;8.00;;;;;;;;;;5054693;28;20041;-69
2023/07/03 04:14:16;;;;;;;8.77;7.45;;;;;;;;;;5054736;28;20025;-69
2023/07/03 04:16:43;;;;;;;8.23;7.40;;;;;;;;;;5046752;28;20069;-69
2023/07/03 04:19:09;;;;;;;12.68;8.18;;;;;;;;;;5041336;28;20036;-68
2023/07/03 04:21:35;;;;;;;12.25;8.13;;;;;;;;;;5056372;28;20033;-69
2023/07/03 04:24:00;;;;;;;11.98;8.05;;;;;;;;;;5035108;28;20025;-69
2023/07/03 04:26:26;;;;;;;18.58;8.57;;;;;;;;;;5054222;28;20041;-69
2023/07/03 04:28:51;;;;;;;12.15;8.27;;;;;;;;;;5054558;28;20025;-69
2023/07/03 04:31:17;;;;;;;11.25;8.00;;;;;;;;;;5052367;28;20075;-68
2023/07/03 04:33:45;;;;;;;11.73;7.85;;;;;;;;;;5032809;28;20432;-68
2023/07/03 04:36:13;;;;;;;11.35;7.47;;;;;;;;;;5038555;28;20041;-68
2023/07/03 04:38:41;;;;;;;14.10;8.48;;;;;;;;;;5040721;28;20413;-68
2023/07/03 04:41:07;;;;;;;12.70;7.43;;;;;;;;;;5052923;28;20502;-68
2023/07/03 04:43:33;;;;;;;11.93;8.52;;;;;;;;;;5052093;28;20029;-67
2023/07/03 04:46:03;;;;;;;13.40;8.27;;;;;;;;;;5043086;28;20032;-69
2023/07/03 04:48:29;;;;;;;12.55;8.50;;;;;;;;;;5041972;28;20025;-67
2023/07/03 04:50:55;;;;;;;18.52;8.38;;;;;;;;;;5036463;28;20044;-68
2023/07/03 04:53:20;;;;;;;12.95;7.82;;;;;;;;;;5053719;28;20088;-67
2023/07/03 04:55:47;;;;;;;10.70;7.65;;;;;;;;;;5053248;28;20497;-67
2023/07/03 04:58:12;;;;;;;11.40;7.97;;;;;;;;;;5033325;28;20041;-68
2023/07/03 05:00:40;;;;;;;12.13;8.43;;;;;;;;;;5027873;28;20078;-66
2023/07/03 05:03:05;;;;;;;21.80;7.82;;;;;;;;;;5046073;28;20040;-67
2023/07/03 05:05:31;;;;;;;11.23;7.53;;;;;;;;;;5048582;28;20076;-66
2023/07/03 05:07:56;;;;;;;13.93;8.75;;;;;;;;;;5041870;28;20033;-66
2023/07/03 05:10:23;;;;;;;13.82;8.05;;;;;;;;;;5034918;28;20049;-67
2023/07/03 05:12:48;;;;;;;11.43;7.50;;;;;;;;;;5051396;28;20092;-69
2023/07/03 05:15:15;;;;;;;11.90;7.70;;;;;;;;;;5049413;28;20518;-67
2023/07/03 05:17:41;;;;;;;19.17;7.50;;;;;;;;;;5053107;28;20028;-68
2023/07/03 05:20:09;;;;;;;13.10;8.48;;;;;;;;;;5051705;28;20036;-67
2023/07/03 05:22:40;;;;;;;12.18;8.07;;;;;;;;;;5037837;28;20107;-67
2023/07/03 05:25:07;;;;;;;14.70;8.20;;;;;;;;;;5047693;28;20041;-67
2023/07/03 05:27:34;;;;;;;11.10;8.20;;;;;;;;;;5033142;28;20033;-67
2023/07/03 05:29:59;;;;;;;11.07;8.05;;;;;;;;;;5050590;28;20398;-66
2023/07/03 05:32:25;;;;;;;14.07;8.85;;;;;;;;;;5052532;28;20028;-67
2023/07/03 05:34:50;;;;;;;23.23;14.65;;;;;;;;;;5044467;28;20017;-65
2023/07/03 05:37:17;;;;;;;12.70;8.40;;;;;;;;;;5051900;28;20045;-68
2023/07/03 05:39:46;;;;;;;11.18;8.32;;;;;;;;;;5030527;28;20031;-67
2023/07/03 05:42:11;;;;;;;14.60;8.20;;;;;;;;;;5050993;28;20592;-68
2023/07/03 05:44:37;;;;;;;11.25;8.50;;;;;;;;;;5024999;28;20025;-67
2023/07/03 05:47:02;;;;;;;14.80;8.35;;;;;;;;;;5049942;28;20395;-68
2023/07/03 05:49:28;;;;;;;14.32;7.82;;;;;;;;;;5051737;28;20372;-68
2023/07/03 05:51:53;;;;;;;15.40;8.25;;;;;;;;;;5052348;28;20037;-67
2023/07/03 05:54:21;;;;;;;17.00;8.95;;;;;;;;;;5019513;28;20532;-68
2023/07/03 05:57:09;;;;;;;10.85;8.70;;;;;;;;;;5030840;28;20734;-68
2023/07/03 05:59:36;;;;;;;11.65;8.32;;;;;;;;;;5054860;28;20037;-69
2023/07/03 06:02:03;;;;;;;11.52;7.68;;;;;;;;;;5025407;28;20124;-69
2023/07/03 06:04:29;;;;;;;15.23;8.93;;;;;;;;;;5053681;28;20068;-69
2023/07/03 06:06:55;;;;;;;14.02;8.63;;;;;;;;;;5025067;28;20033;-70
2023/07/03 06:09:22;;;;;;;20.27;10.27;;;;;;;;;;5047422;28;20115;-69
2023/07/03 06:11:47;;;;;;;13.80;8.35;;;;;;;;;;5033053;28;20483;-69
2023/07/03 06:14:17;;;;;;;13.55;8.57;;;;;;;;;;5031867;28;20059;-71
2023/07/03 06:16:44;;;;;;;11.35;8.27;;;;;;;;;;5048595;28;20044;-70
2023/07/03 06:19:11;;;;;;;11.60;8.48;;;;;;;;;;5047685;28;20032;-69
2023/07/03 06:21:36;;;;;;;10.85;7.80;;;;;;;;;;5033430;28;20128;-69
2023/07/03 06:24:02;;;;;;;14.52;8.82;;;;;;;;;;5047097;28;20052;-69
2023/07/03 06:26:33;;;;;;;10.50;7.60;;;;;;;;;;5038299;28;20041;-70
2023/07/03 06:28:59;;;;;;;14.25;8.00;;;;;;;;;;5049851;28;20024;-70
2023/07/03 06:31:24;;;;;;;14.70;8.30;;;;;;;;;;5053077;28;20121;-68
2023/07/03 06:33:49;;;;;;;14.00;7.90;;;;;;;;;;5008790;28;20132;-69
2023/07/03 06:36:20;;;;;;;14.23;8.10;;;;;;;;;;5018437;28;20069;-70
2023/07/03 06:38:47;;;;;;;13.98;8.40;;;;;;;;;;5046962;28;20037;-69
2023/07/03 06:41:13;;;;;;;15.18;8.20;;;;;;;;;;5054758;28;20056;-70
2023/07/03 06:43:38;;;;;;;10.02;7.75;;;;;;;;;;5029271;28;20059;-70
2023/07/03 06:46:04;;;;;;;13.57;8.30;;;;;;;;;;5014662;28;20045;-70
2023/07/03 06:48:29;;;;;;;11.50;7.65;;;;;;;;;;5034967;28;20025;-69
2023/07/03 06:51:06;;;;;;;11.73;7.53;;;;;;;;;;5045254;28;20398;-71
2023/07/03 06:53:32;;;;;;;14.10;7.70;;;;;;;;;;5057383;28;20414;-69
2023/07/03 06:55:59;;;;;;;12.48;7.30;;;;;;;;;;5055078;28;20163;-69
2023/07/03 06:58:25;;;;;;;11.55;8.00;;;;;;;;;;5056603;28;20025;-69
2023/07/03 07:00:51;;;;;;;12.85;7.97;;;;;;;;;;5037796;28;20097;-69
2023/07/03 07:03:17;;;;;;;12.05;7.88;;;;;;;;;;5057839;28;20571;-70
2023/07/03 07:05:42;;;;;;;11.18;7.15;;;;;;;;;;5056420;28;20426;-70
2023/07/03 07:08:08;;;;;;;10.98;7.30;;;;;;;;;;5019988;28;20095;-69
2023/07/03 07:10:38;;;;;;;9.23;6.45;;;;;;;;;;5054753;28;20044;-70
2023/07/03 07:13:04;;;;;;;11.75;7.85;;;;;;;;;;5055823;28;20025;-68
2023/07/03 07:15:29;;;;;;;13.93;7.03;;;;;;;;;;5037743;28;20055;-70
2023/07/03 07:17:55;;;;;;;13.55;7.30;;;;;;;;;;5022487;28;20039;-69
2023/07/03 07:20:20;;;;;;;10.35;7.55;;;;;;;;;;5052578;28;20120;-68
2023/07/03 07:22:47;;;;;;;10.30;6.93;;;;;;;;;;5052055;28;20080;-69
2023/07/03 07:25:13;;;;;;;15.13;7.32;;;;;;;;;;5054740;28;20102;-70
2023/07/03 07:27:38;;;;;;;10.55;6.38;;;;;;;;;;5039355;28;20116;-70
2023/07/03 07:30:04;;;;;;;14.13;7.15;;;;;;;;;;5015168;28;20040;-68
2023/07/03 07:32:29;;;;;;;8.15;6.82;;;;;;;;;;5056192;28;20035;-69
2023/07/03 07:34:55;;;;;;;12.60;6.95;;;;;;;;;;5038040;28;20386;-69
2023/07/03 07:37:20;;;;;;;14.57;7.72;;;;;;;;;;5052020;28;20025;-69
2023/07/03 07:39:46;;;;;;;11.73;7.57;;;;;;;;;;5047695;28;20024;-68
2023/07/03 07:42:11;;;;;;;9.00;6.68;;;;;;;;;;5020594;28;20075;-69
2023/07/03 07:44:38;;;;;;;10.63;6.28;;;;;;;;;;5053916;28;20029;-69
2023/07/03 07:47:04;;;;;;;15.00;7.20;;;;;;;;;;5055114;28;20386;-69
2023/07/03 07:49:29;;;;;;;11.38;7.20;;;;;;;;;;5056640;28;20509;-70
2023/07/03 07:51:57;;;;;;;15.40;8.07;;;;;;;;;;5020024;28;20037;-69
2023/07/03 07:54:22;;;;;;;13.35;7.38;;;;;;;;;;5053436;28;20108;-69
2023/07/03 07:56:47;;;;;;;13.60;6.32;;;;;;;;;;5056136;28;20060;-69
2023/07/03 07:59:13;;;;;;;11.98;7.03;;;;;;;;;;5040091;28;20463;-68
2023/07/03 08:01:38;;;;;;;10.15;7.30;;;;;;;;;;5036189;28;20518;-70
2023/07/03 08:04:04;;;;;;;8.45;6.97;;;;;;;;;;5028997;28;20039;-69
2023/07/03 08:06:29;;;;;;;10.02;7.40;;;;;;;;;;5054842;28;20033;-69
2023/07/03 08:08:55;;;;;;;13.77;7.15;;;;;;;;;;5049418;28;20037;-69
2023/07/03 08:11:20;;;;;;;12.50;6.70;;;;;;;;;;5023881;28;20498;-69
2023/07/03 08:13:46;;;;;;;15.68;7.43;;;;;;;;;;5031201;28;20038;-69
2023/07/03 08:16:12;;;;;;;16.08;6.97;;;;;;;;;;5054814;28;20041;-69
2023/07/03 08:18:37;;;;;;;14.65;7.60;;;;;;;;;;5056417;28;20096;-69
2023/07/03 08:21:03;;;;;;;11.75;6.88;;;;;;;;;;5027156;28;20025;-69
2023/07/03 08:23:30;;;;;;;11.27;7.00;;;;;;;;;;5053054;28;20509;-70
2023/07/03 08:25:56;;;;;;;13.82;7.35;;;;;;;;;;5048374;28;20036;-70
2023/07/03 08:28:22;;;;;;;13.38;7.85;;;;;;;;;;5052161;28;20020;-71
2023/07/03 08:30:48;;;;;;;12.80;6.78;;;;;;;;;;5055906;28;20068;-71
2023/07/03 08:33:14;;;;;;;8.57;6.47;;;;;;;;;;5037527;28;20025;-72
2023/07/03 08:35:40;;;;;;;8.50;6.53;;;;;;;;;;5037497;28;20115;-70
2023/07/03 08:38:06;;;;;;;12.18;6.80;;;;;;;;;;5056885;28;20056;-71
2023/07/03 08:40:31;;;;;;;11.68;6.32;;;;;;;;;;5054072;28;20032;-70
2023/07/03 08:42:59;;;;;;;11.68;6.32;;;;;;;;;;5036330;28;20429;-69
2023/07/03 08:45:33;;;;;;;8.70;6.80;;;;;;;;;;5052015;28;20037;-69
2023/07/03 08:48:00;;;;;;;10.15;6.35;;;;;;;;;;5056345;28;20021;-70
2023/07/03 08:50:26;;;;;;;14.73;6.75;;;;;;;;;;5053218;28;20038;-70
2023/07/03 08:53:01;;;;;;;8.52;6.00;;;;;;;;;;5034533;28;20040;-69
2023/07/03 08:55:33;;;;;;;8.88;6.13;;;;;;;;;;5039490;28;20041;-69
2023/07/03 08:57:59;;;;;;;13.48;6.65;;;;;;;;;;5035486;28;20020;-69
2023/07/03 09:00:26;;;;;;;8.13;6.10;;;;;;;;;;5023137;28;20049;-69
2023/07/03 09:03:22;;;;;;;6.75;5.88;;;;;;;;;;5049389;28;20040;-69
2023/07/03 09:06:02;;;;;;;16.67;7.10;;;;;;;;;;5015101;28;20033;-70
2023/07/03 09:08:47;;;;;;;14.75;6.55;;;;;;;;;;5059449;28;20059;-69
2023/07/03 09:11:15;;;;;;;8.40;6.00;;;;;;;;;;5043306;28;20060;-68
2023/07/03 09:13:47;;;;;;;9.50;5.72;;;;;;;;;;5048149;28;20526;-69
2023/07/03 09:16:21;;;;;;;14.57;6.72;;;;;;;;;;5053810;28;20063;-68
2023/07/03 09:18:59;;;;;;;15.85;6.65;;;;;;;;;;5049006;28;20033;-70
2023/07/03 09:21:28;;;;;;;9.32;6.07;;;;;;;;;;5036757;28;20037;-69
2023/07/03 09:24:17;;;;;;;11.40;6.63;;;;;;;;;;5055019;28;20527;-69
2023/07/03 09:26:57;;;;;;;12.15;6.40;;;;;;;;;;5025944;28;20048;-69
2023/07/03 09:29:25;;;;;;;12.75;5.95;;;;;;;;;;5029174;28;20053;-69
2023/07/03 09:31:52;;;;;;;18.60;6.30;;;;;;;;;;5037345;28;20048;-69
2023/07/03 09:34:19;;;;;;;8.23;5.47;;;;;;;;;;5038536;28;20032;-70
2023/07/03 09:36:44;;;;;;;11.35;6.40;;;;;;;;;;5022086;28;20029;-70
2023/07/03 09:39:13;;;;;;;11.40;6.38;;;;;;;;;;5030832;28;20034;-69
2023/07/03 09:41:40;;;;;;;10.20;5.93;;;;;;;;;;5048917;28;20041;-68
2023/07/03 09:44:17;;;;;;;9.98;5.93;;;;;;;;;;5055631;28;20033;-69
2023/07/03 09:46:43;;;;;;;8.40;5.63;;;;;;;;;;5051369;28;20079;-68
2023/07/03 09:49:22;;;;;;;10.85;5.60;;;;;;;;;;5047836;28;20033;-69
2023/07/03 09:51:53;;;;;;;10.38;6.05;;;;;;;;;;5052164;28;20413;-69
2023/07/03 09:54:25;;;;;;;14.82;6.47;;;;;;;;;;5047108;28;20116;-69
2023/07/03 09:56:51;;;;;;;9.55;5.68;;;;;;;;;;5054690;28;20068;-69
2023/07/03 09:59:19;;;;;;;10.27;5.50;;;;;;;;;;5054773;28;20378;-69
2023/07/03 10:01:46;;;;;;;7.30;5.68;;;;;;;;;;5053647;28;20037;-69
2023/07/03 10:04:17;;;;;;;10.93;6.57;;;;;;;;;;5036248;28;20025;-69
2023/07/03 10:06:57;;;;;;;8.82;5.97;;;;;;;;;;5061156;28;20061;-68
2023/07/03 10:09:27;;;;;;;13.27;5.90;;;;;;;;;;5056203;28;20044;-70
2023/07/03 10:12:10;;;;;;;8.10;5.45;;;;;;;;;;5058865;28;20040;-68
2023/07/03 10:14:42;;;;;;;7.40;5.65;;;;;;;;;;5056851;28;20020;-70
2023/07/03 10:17:12;;;;;;;8.73;6.20;;;;;;;;;;5044105;28;20057;-69
2023/07/03 10:19:45;;;;;;;8.13;5.80;;;;;;;;;;5049112;28;20028;-70
2023/07/03 10:22:12;;;;;;;14.82;5.90;;;;;;;;;;5050418;28;20041;-70
2023/07/03 10:24:41;;;;;;;8.20;5.32;;;;;;;;;;5038812;28;20047;-70
2023/07/03 10:27:07;;;;;;;14.57;5.97;;;;;;;;;;5053982;28;20218;-70
2023/07/03 10:29:38;;;;;;;10.38;6.00;;;;;;;;;;5058218;28;20028;-69
2023/07/03 10:32:06;;;;;;;9.88;6.10;;;;;;;;;;5039644;28;20037;-71
2023/07/03 10:34:38;;;;;;;9.18;5.85;;;;;;;;;;5056284;28;20111;-70
2023/07/03 10:37:06;;;;;;;10.68;6.63;;;;;;;;;;5047737;28;20047;-69
2023/07/03 10:39:43;;;;;;;11.82;5.97;;;;;;;;;;5046471;28;20044;-69
2023/07/03 10:42:33;;;;;;;9.70;5.68;;;;;;;;;;5054959;28;20041;-69
2023/07/03 10:45:14;;;;;;;9.80;6.00;;;;;;;;;;5043728;28;20037;-70
2023/07/03 10:47:47;;;;;;;9.15;5.47;;;;;;;;;;5057761;28;20045;-67
2023/07/03 10:50:13;;;;;;;8.15;5.43;;;;;;;;;;5057985;28;20105;-69
2023/07/03 10:52:56;;;;;;;15.07;5.47;;;;;;;;;;5039389;28;20051;-68
2023/07/03 10:55:36;;;;;;;9.25;5.70;;;;;;;;;;5057908;28;20041;-71
2023/07/03 10:58:07;;;;;;;11.48;5.72;;;;;;;;;;5049727;28;20025;-68
2023/07/03 11:00:46;;;;;;;10.07;5.88;;;;;;;;;;5056862;28;20085;-69
2023/07/03 11:03:17;;;;;;;12.43;6.28;;;;;;;;;;5056111;28;20108;-69
2023/07/03 11:05:51;;;;;;;7.85;5.95;;;;;;;;;;5054916;28;20159;-68
2023/07/03 11:08:38;;;;;;;9.18;6.25;;;;;;;;;;5026520;28;20058;-69
2023/07/03 11:11:06;;;;;;;12.05;6.05;;;;;;;;;;5052500;28;20582;-70
2023/07/03 11:13:37;;;;;;;14.68;5.40;;;;;;;;;;5041061;28;20119;-68
2023/07/03 11:16:15;;;;;;;8.15;5.13;;;;;;;;;;5055213;28;20423;-67
2023/07/03 11:18:48;;;;;;;6.93;5.60;;;;;;;;;;5039680;28;20128;-68
2023/07/03 11:21:50;;;;;;;10.43;4.95;;;;;;;;;;5056698;28;20045;-69
2023/07/03 11:24:19;;;;;;;9.27;5.40;;;;;;;;;;5051322;28;20021;-68
2023/07/03 11:26:54;;;;;;;8.90;5.45;;;;;;;;;;5035517;28;20502;-66
2023/07/03 11:29:20;;;;;;;9.32;5.32;;;;;;;;;;5053558;28;20474;-68
2023/07/03 11:31:46;;;;;;;8.60;5.22;;;;;;;;;;5043710;28;20045;-67
2023/07/03 11:34:15;;;;;;;7.40;5.47;;;;;;;;;;5056184;28;20553;-68
2023/07/03 11:36:43;;;;;;;10.60;5.13;;;;;;;;;;5044650;28;20049;-67
2023/07/03 11:39:27;;;;;;;9.13;5.35;;;;;;;;;;5056058;28;20029;-66
2023/07/03 11:41:54;;;;;;;6.35;4.95;;;;;;;;;;5038068;28;20063;-68
2023/07/03 11:44:33;;;;;;;9.98;5.55;;;;;;;;;;5053322;28;20098;-68
2023/07/03 11:47:07;;;;;;;6.03;4.90;;;;;;;;;;5053211;28;20068;-67
2023/07/03 11:49:36;;;;;;;8.80;4.88;;;;;;;;;;5056395;28;20089;-67
2023/07/03 11:52:04;;;;;;;9.48;5.50;;;;;;;;;;5035823;28;20459;-68
2023/07/03 11:54:34;;;;;;;6.60;5.20;;;;;;;;;;5052409;28;20051;-68
2023/07/03 11:57:09;;;;;;;10.95;4.88;;;;;;;;;;5040549;28;20178;-67
2023/07/03 11:59:38;;;;;;;10.02;5.35;;;;;;;;;;5047811;28;20021;-66
2023/07/03 12:02:16;;;;;;;16.05;5.53;;;;;;;;;;5038603;28;20117;-67
2023/07/03 12:04:45;;;;;;;9.75;5.50;;;;;;;;;;5056980;28;20086;-67
2023/07/03 12:07:30;;;;;;;7.82;4.97;;;;;;;;;;5051269;28;20064;-67
2023/07/03 12:10:17;;;;;;;9.80;5.30;;;;;;;;;;5042664;28;20120;-65
2023/07/03 12:12:49;;;;;;;5.57;4.95;;;;;;;;;;5060601;28;20037;-68
2023/07/03 12:15:15;;;;;;;9.73;5.13;;;;;;;;;;5050959;28;20033;-68
2023/07/03 12:17:41;;;;;;;8.68;5.18;;;;;;;;;;5020367;28;20044;-69
2023/07/03 12:20:13;;;;;;;12.32;5.10;;;;;;;;;;5003833;28;20037;-68
2023/07/03 12:22:45;;;;;;;8.38;4.85;;;;;;;;;;5052222;28;20600;-68
2023/07/03 12:25:17;;;;;;;6.10;4.63;;;;;;;;;;5019544;28;20033;-68
2023/07/03 12:27:43;;;;;;;7.63;5.18;;;;;;;;;;5036568;28;20544;-69
2023/07/03 12:30:21;;;;;;;14.55;4.60;;;;;;;;;;5031634;28;20033;-68
2023/07/03 12:32:49;;;;;;;18.45;5.10;;;;;;;;;;5056240;28;20078;-69
2023/07/03 12:35:18;;;;;;;5.25;4.53;;;;;;;;;;5037507;28;20440;-69
2023/07/03 12:37:46;;;;;;;7.28;5.10;;;;;;;;;;5056200;28;20036;-69
2023/07/03 12:40:14;;;;;;;7.75;4.95;;;;;;;;;;5047523;28;20049;-69
2023/07/03 12:42:39;;;;;;;10.63;5.07;;;;;;;;;;5056256;28;20021;-69
2023/07/03 12:45:32;;;;;;;8.70;4.85;;;;;;;;;;5042689;28;20025;-69
2023/07/03 12:48:08;;;;;;;8.25;4.78;;;;;;;;;;5051104;28;20045;-69
2023/07/03 12:50:45;;;;;;;7.55;4.90;;;;;;;;;;5052827;28;20037;-69
2023/07/03 12:53:11;;;;;;;7.68;4.82;;;;;;;;;;5047790;28;20029;-69
2023/07/03 12:55:37;;;;;;;5.97;4.90;;;;;;;;;;5041761;28;20744;-70
2023/07/03 12:58:05;;;;;;;13.68;5.03;;;;;;;;;;5055189;28;20100;-68
2023/07/03 13:00:33;;;;;;;5.95;4.57;;;;;;;;;;5039228;28;20033;-69
2023/07/03 13:03:06;;;;;;;9.20;5.28;;;;;;;;;;5018585;28;20045;-69
2023/07/03 13:05:33;;;;;;;8.10;5.20;;;;;;;;;;5054742;28;20037;-70
2023/07/03 13:08:01;;;;;;;9.32;5.45;;;;;;;;;;5060900;28;20033;-70
2023/07/03 13:10:26;;;;;;;7.00;5.18;;;;;;;;;;5051977;28;20072;-69
2023/07/03 13:13:07;;;;;;;9.70;5.43;;;;;;;;;;5054616;28;20033;-70
2023/07/03 13:15:47;;;;;;;7.15;5.25;;;;;;;;;;5041491;28;20406;-68
2023/07/03 13:18:12;;;;;;;8.48;5.03;;;;;;;;;;5037538;28;20048;-69
2023/07/03 13:20:39;;;;;;;10.30;4.78;;;;;;;;;;5055172;28;20033;-70
2023/07/03 13:23:08;;;;;;;6.68;4.75;;;;;;;;;;5045449;28;20093;-69
2023/07/03 13:25:35;;;;;;;6.68;4.97;;;;;;;;;;5037623;28;20054;-68
2023/07/03 13:28:08;;;;;;;9.98;5.05;;;;;;;;;;5046580;28;20021;-69
2023/07/03 13:30:36;;;;;;;10.45;4.35;;;;;;;;;;5046701;28;20044;-69
2023/07/03 13:33:08;;;;;;;5.28;4.55;;;;;;;;;;5052926;28;20025;-68
2023/07/03 13:35:50;;;;;;;11.30;5.40;;;;;;;;;;5054601;28;20140;-67
2023/07/03 13:38:26;;;;;;;10.82;5.35;;;;;;;;;;5033573;28;20056;-69
2023/07/03 13:40:53;;;;;;;10.32;5.57;;;;;;;;;;5052022;28;22040;-69
2023/07/03 13:43:21;;;;;;;7.88;5.13;;;;;;;;;;5052593;28;20036;-68
2023/07/03 13:45:49;;;;;;;9.48;5.85;;;;;;;;;;5057145;28;20491;-69
2023/07/03 13:48:15;;;;;;;5.88;4.80;;;;;;;;;;5050575;28;20104;-67
2023/07/03 13:50:40;;;;;;;7.97;3.92;;;;;;;;;;5004929;28;20121;-68
2023/07/03 13:53:05;;;;;;;6.18;4.43;;;;;;;;;;5042052;28;20021;-68
2023/07/03 13:55:31;;;;;;;9.68;4.70;;;;;;;;;;5052168;28;20052;-67
2023/07/03 13:57:57;;;;;;;7.78;4.63;;;;;;;;;;5031218;28;20033;-67
2023/07/03 14:00:22;;;;;;;7.38;4.45;;;;;;;;;;5021952;28;20402;-68
2023/07/03 14:02:47;;;;;;;5.53;4.70;;;;;;;;;;5033681;28;20442;-68
2023/07/03 14:05:13;;;;;;;6.15;4.05;;;;;;;;;;5034187;28;20123;-69
2023/07/03 14:07:38;;;;;;;6.10;4.55;;;;;;;;;;5033795;28;20056;-69
2023/07/03 14:10:05;;;;;;;4.75;3.95;;;;;;;;;;5038048;28;20043;-68
2023/07/03 14:12:30;;;;;;;7.75;4.07;;;;;;;;;;5053279;28;20084;-70
2023/07/03 14:14:56;;;;;;;5.20;4.32;;;;;;;;;;5049810;28;20629;-67
2023/07/03 14:17:21;;;;;;;7.72;3.90;;;;;;;;;;5045712;28;20099;-69
2023/07/03 14:19:46;;;;;;;6.63;4.15;;;;;;;;;;5029861;28;20028;-69
2023/07/03 14:22:12;;;;;;;4.43;3.80;;;;;;;;;;5039698;28;20037;-70
2023/07/03 14:24:37;;;;;;;6.18;4.40;;;;;;;;;;5030609;28;20036;-69
2023/07/03 14:27:03;;;;;;;5.80;4.22;;;;;;;;;;5033629;28;20045;-68
2023/07/03 14:29:28;;;;;;;7.30;3.92;;;;;;;;;;5044827;28;20061;-69
2023/07/03 14:31:54;;;;;;;9.05;4.60;;;;;;;;;;5052788;28;20041;-69
2023/07/03 14:34:19;;;;;;;7.95;4.10;;;;;;;;;;5037009;28;20030;-70
2023/07/03 14:36:45;;;;;;;4.63;3.83;;;;;;;;;;5027413;28;20036;-69
2023/07/03 14:39:10;;;;;;;9.05;4.20;;;;;;;;;;5030431;28;20038;-69
2023/07/03 14:41:36;;;;;;;6.35;4.28;;;;;;;;;;5045276;28;20625;-69
2023/07/03 14:44:02;;;;;;;11.05;4.10;;;;;;;;;;5039838;28;20025;-68